Friday, January 19, 2018, 10:38 AM EST
Back to Local

KFDK, Frederick, Frederick Municipal Airport

Location: Frederick, MD, United States Lat: 39.417
Local Time: 10:38 AM EST (15:38 GMT) Lon: -77.374
Time Zone: US/Eastern Elev: 301 ft

Show me the last for .
Show Decoded

2018-01-19 09:47 METAR KFDK 191447Z 27005KT 10SM SKC 04/M16 A3016 =
2018-01-19 08:47 METAR KFDK 191347Z 26006KT 10SM SKC 03/M15 A3015 =
2018-01-19 07:47 METAR KFDK 191247Z 26009G15KT 10SM SKC 03/M16 A3014 =
2018-01-19 06:50 METAR KFDK 191150Z AUTO 28009KT 10SM CLR 01/M12 A3014 RMK AO2 =
2018-01-19 06:35 METAR KFDK 191135Z AUTO 00000KT 10SM CLR 00/M11 A3014 RMK AO2 =
2018-01-19 06:15 METAR KFDK 191115Z AUTO 00000KT 10SM CLR M01/M11 A3013 RMK AO2 =
2018-01-19 05:55 METAR KFDK 191055Z AUTO 00000KT 10SM CLR M02/M10 A3012 RMK AO2 =
2018-01-19 05:35 METAR KFDK 191035Z AUTO 00000KT 10SM CLR M06/M10 A3011 RMK AO2 =
2018-01-19 05:15 METAR KFDK 191015Z AUTO 00000KT 10SM CLR M06/M08 A3011 RMK AO2 =
2018-01-19 04:55 METAR KFDK 190955Z AUTO 00000KT 10SM CLR M06/M10 A3012 RMK AO2 =
2018-01-19 04:35 METAR KFDK 190935Z AUTO 00000KT 10SM CLR M06/M10 A3011 RMK AO2 =
2018-01-19 04:15 METAR KFDK 190915Z AUTO 00000KT 10SM CLR M06/M10 A3012 RMK AO2 =
2018-01-19 03:55 METAR KFDK 190855Z AUTO 00000KT 10SM CLR M05/M10 A3011 RMK AO2 =
2018-01-19 03:35 METAR KFDK 190835Z AUTO 00000KT 10SM CLR M06/M10 A3011 RMK AO2 =
2018-01-19 03:15 METAR KFDK 190815Z AUTO 00000KT 10SM CLR M04/M10 A3011 RMK AO2 =
2018-01-19 02:55 METAR KFDK 190755Z AUTO 00000KT 10SM CLR M03/M10 A3010 RMK AO2 =
2018-01-19 02:35 METAR KFDK 190735Z AUTO 00000KT 10SM CLR M03/M11 A3011 RMK AO2 =
2018-01-19 02:15 METAR KFDK 190715Z AUTO 00000KT 10SM CLR M04/M11 A3011 RMK AO2 =
2018-01-19 01:55 METAR KFDK 190655Z AUTO 00000KT 10SM CLR M03/M10 A3011 RMK AO2 =
2018-01-19 01:35 METAR KFDK 190635Z AUTO 00000KT 10SM CLR M02/M12 A3012 RMK AO2 =
2018-01-19 01:15 METAR KFDK 190615Z AUTO 18004KT 10SM CLR M01/M12 A3011 RMK AO2 LTG DSNT E =
2018-01-19 00:55 METAR KFDK 190555Z AUTO 19003KT 10SM CLR M02/M12 A3012 RMK AO2 =
2018-01-19 00:35 METAR KFDK 190535Z AUTO 00000KT 10SM CLR M02/M12 A3012 RMK AO2 LTG DSNT E =
2018-01-19 00:15 METAR KFDK 190515Z AUTO 14005KT 10SM CLR M01/M13 A3012 RMK AO2 =
2018-01-18 23:55 METAR KFDK 190455Z AUTO 00000KT 10SM CLR 00/M15 A3013 RMK AO2 =
2018-01-18 23:35 METAR KFDK 190435Z AUTO 00000KT 10SM CLR 00/M15 A3014 RMK AO2 =
2018-01-18 23:15 METAR KFDK 190415Z AUTO 15003KT 10SM CLR 01/M16 A3014 RMK AO2 =
2018-01-18 22:55 METAR KFDK 190355Z AUTO 17003KT 10SM CLR 00/M16 A3015 RMK AO2 =
2018-01-18 22:35 METAR KFDK 190335Z AUTO 00000KT 10SM CLR 01/M17 A3015 RMK AO2 =
2018-01-18 22:15 METAR KFDK 190315Z AUTO 00000KT 10SM CLR 02/M18 A3014 RMK AO2 =
2018-01-18 21:55 METAR KFDK 190255Z AUTO 00000KT 10SM CLR 01/M18 A3014 RMK AO2 =
2018-01-18 21:35 METAR KFDK 190235Z AUTO 29004KT 10SM CLR 02/M19 A3014 RMK AO2 =
2018-01-18 21:15 METAR KFDK 190215Z AUTO 00000KT 10SM CLR 02/M19 A3014 RMK AO2 =
2018-01-18 20:55 METAR KFDK 190155Z AUTO 31005KT 10SM CLR 02/M19 A3013 RMK AO2 =
2018-01-18 20:47 METAR KFDK 190147Z 31006KT 10SM SKC 02/M19 A3013 =
2018-01-18 19:47 METAR KFDK 190047Z 31010KT 10SM SKC 03/M20 A3012 =
2018-01-18 18:47 METAR KFDK 182347Z 00000KT 10SM SKC 03/M20 A3010 =
2018-01-18 17:47 METAR KFDK 182247Z 29005KT 10SM SKC 04/M20 A3009 =
2018-01-18 16:47 METAR KFDK 182147Z 29007KT 10SM SKC 05/M20 A3007 =
2018-01-18 15:47 METAR KFDK 182047Z 29010G18KT 10SM SKC 06/M19 A3006 =
2018-01-18 14:50 METAR KFDK 181950Z 30013G23KT 10SM SKC 05/M21 A3006 =
2018-01-18 13:47 METAR KFDK 181847Z 29011G17KT 10SM SKC 05/M20 A3009 =
2018-01-18 12:47 METAR KFDK 181747Z 29010KT 10SM SKC 03/M18 A3012 =
2018-01-18 11:47 METAR KFDK 181647Z 30012G20KT 10SM SKC 02/M18 A3016 =
2018-01-18 10:47 METAR KFDK 181547Z 28012G20KT 10SM SKC M01/M17 A3019 =

Support USWX by starting your Amazon purchase here.